If you wish to contribute or participate in the discussions about articles you are invited to join SKYbrary as a registered user

 Actions

Ho Chi Minh City International Airport

From SKYbrary Wiki

VVTS /
Revision as of 08:46, 19 August 2019 by Integration.Manager (talk | contribs)
(diff) ← Older revision | Latest revision (diff) | Newer revision → (diff)
Airport
ICAO: VVTS – IATA: SGN
Summary
Name Ho Chi Minh City International Airport
Region Asia and Pacific
Territory Vietnam VN.gif
Location Ho Chi Minh City, Ho Chi Minh City
Serving Ho Chi Minh City
Elevation 10.058 m
33 ft10.058 m
Coordinates 10° 49' 14.02" N, 106° 39' 38.99" E
Runways
Designator Length Width Surface ROPS
07L/25R 3048 m10,000 ft
45 m147.638 ft
CON yes/yes
07R/25L 3800 m12,467.192 ft
45 m147.638 ft
CON yes/yes


METAR
Observation VVTS 162000Z 22007KT 9999 SCT015 SCT040 26/25 Q1006 NOSIG
Station Ho Chi Minh
Date/Time 16 September 2019 20:00:00
Wind direction 220°
Wind speed 07 kts
Lowest cloud amount scattered clouds
Temperature 26°C
Dew point 25°C
Humidity 94%
QNH 1006 hPa
Weather condition n/a

Description

International airport serving Ho Chi Minh City, Vietnam.

Climatology

Tropical savannah climate (Köppen climate classification Aw)

Maps

Terrain

Loading map...

Airport Layout

Loading map...


Accidents & Serious Incidents at or in vicinity of VVTS

None on SKYbrary